LIPL/QBS METAR and TAF weather

Enter ICAO airport designator
Station Type Date Time Source
LIPL METAR 2020/07/11 15:55 UTC NOAA

LIPL 111555Z /////KT 9999 SCT035 24/18 Q1012 RMK BKN VIS MIN 9999 WIND THR31 06016KT WIND THR13 06013KT BLU


Station Type Date Time Source
LIPL Decoded METAR 2020/07/11 15:55 UTC NOAA

Brescia / Ghedi, Italy (LIPL) 45-25N 010-17E 97M
Jul 11, 2020 - 11:55 AM EDT / 2020.07.11 1555 UTC
Visibility: greater than 7 mile(s):0
Sky conditions: partly cloudy
Temperature: 75 F (24 C)
Dew Point: 64 F (18 C)
Relative Humidity: 69%
Pressure (altimeter): 29.88 in. Hg (1012 hPa)
ob: LIPL 111555Z /////KT 9999 SCT035 24/18 Q1012 RMK BKN VIS MIN 9999 WIND THR31 06016KT WIND THR13 06013KT BLU
cycle: 16

Station Type Date Time Source
LIPL TAF 2020/02/28 09:24 UTC NOAA

TAF TAF LIPL 280800Z 2809/2821 27007KT CAVOK

Example: see airport list